createdAt,value
2018-07-14T00:00:49.855Z,5.37
2018-07-14T00:03:18.253Z,5.40
2018-07-14T00:05:46.721Z,5.70
2018-07-14T00:08:15.166Z,5.10
2018-07-14T00:10:43.847Z,5.00
2018-07-14T00:13:12.231Z,6.07
2018-07-14T00:15:40.837Z,5.13
2018-07-14T00:18:09.143Z,5.43
2018-07-14T00:20:37.482Z,5.40
2018-07-14T00:23:05.900Z,5.20
2018-07-14T00:26:04.610Z,5.20
2018-07-14T00:28:34.070Z,5.10
2018-07-14T00:31:02.696Z,5.60
2018-07-14T00:33:31.444Z,4.70
2018-07-14T00:36:00.097Z,5.33
2018-07-14T00:38:28.813Z,5.03
2018-07-14T00:40:57.414Z,5.13
2018-07-14T00:43:25.705Z,5.90
2018-07-14T00:45:54.637Z,5.80
2018-07-14T00:48:23.024Z,5.20
2018-07-14T00:50:51.594Z,5.30
2018-07-14T00:53:19.879Z,5.67
2018-07-14T00:55:48.495Z,4.90
2018-07-14T00:58:16.832Z,5.13
2018-07-14T01:00:45.170Z,5.80
2018-07-14T01:03:13.537Z,5.73
2018-07-14T01:05:41.855Z,5.57
2018-07-14T01:08:10.146Z,5.70
2018-07-14T01:10:38.488Z,5.23
2018-07-14T01:13:06.809Z,5.67
2018-07-14T01:15:35.297Z,4.83
2018-07-14T01:18:03.653Z,5.60
2018-07-14T01:20:31.964Z,5.50
2018-07-14T01:23:00.342Z,6.03
2018-07-14T01:25:29.401Z,5.60
2018-07-14T01:27:58.411Z,5.93
2018-07-14T01:30:26.710Z,6.53
2018-07-14T01:32:55.067Z,5.47
2018-07-14T01:35:23.393Z,6.10
2018-07-14T01:37:51.879Z,6.17
2018-07-14T01:40:20.271Z,6.50
2018-07-14T01:42:48.668Z,5.60
2018-07-14T01:45:17.035Z,6.60
2018-07-14T01:47:45.346Z,6.03
2018-07-14T01:50:13.724Z,5.60
2018-07-14T01:52:42.013Z,6.30
2018-07-14T01:55:10.501Z,6.67
2018-07-14T01:57:38.819Z,6.20
2018-07-14T02:00:07.170Z,5.90
2018-07-14T02:02:35.488Z,5.63
2018-07-14T02:05:04.120Z,6.00
2018-07-14T02:07:32.443Z,6.90
2018-07-14T02:10:00.774Z,5.97
2018-07-14T02:12:29.152Z,6.40
2018-07-14T02:14:57.413Z,6.00
2018-07-14T02:17:25.735Z,6.10
2018-07-14T02:19:53.975Z,6.00
2018-07-14T02:22:22.309Z,5.77
2018-07-14T02:24:50.675Z,6.40
2018-07-14T02:27:18.950Z,7.37
2018-07-14T02:29:47.228Z,6.30
2018-07-14T02:32:15.495Z,6.43
2018-07-14T02:34:43.764Z,7.33
2018-07-14T02:37:12.134Z,7.47
2018-07-14T02:39:40.438Z,6.30
2018-07-14T02:42:08.867Z,8.50
2018-07-14T02:44:37.186Z,6.47
2018-07-14T02:47:07.030Z,6.57
2018-07-14T02:49:35.324Z,6.80
2018-07-14T02:52:03.647Z,6.40
2018-07-14T02:54:31.917Z,6.13
2018-07-14T02:57:00.175Z,6.50
2018-07-14T02:59:28.539Z,6.80
2018-07-14T03:01:56.891Z,6.13
2018-07-14T03:04:25.155Z,6.37
2018-07-14T03:06:53.469Z,5.97
2018-07-14T03:09:21.711Z,6.50
2018-07-14T03:11:49.972Z,6.20
2018-07-14T03:14:18.270Z,5.87
2018-07-14T03:16:46.570Z,5.77
2018-07-14T03:19:14.914Z,6.30
2018-07-14T03:21:43.175Z,8.07
2018-07-14T03:24:11.452Z,5.03
2018-07-14T03:26:39.751Z,6.87
2018-07-14T03:29:08.006Z,7.30
2018-07-14T03:31:36.301Z,6.60
2018-07-14T03:34:04.625Z,6.70
2018-07-14T03:36:32.940Z,6.27
2018-07-14T03:39:01.298Z,6.83
2018-07-14T03:41:29.634Z,7.23
2018-07-14T03:43:57.969Z,6.80
2018-07-14T03:46:26.325Z,5.93
2018-07-14T03:48:54.654Z,5.90
2018-07-14T03:51:22.939Z,6.83
2018-07-14T03:53:51.204Z,7.90
2018-07-14T03:56:19.588Z,6.87
2018-07-14T03:58:47.863Z,6.03
2018-07-14T04:01:16.170Z,6.33
2018-07-14T04:03:44.504Z,6.23
2018-07-14T04:06:13.968Z,6.80
2018-07-14T04:08:42.396Z,6.00
2018-07-14T04:11:10.697Z,5.77
2018-07-14T04:13:38.955Z,5.80
2018-07-14T04:16:07.296Z,5.60
2018-07-14T04:18:35.628Z,5.40
2018-07-14T04:21:03.954Z,6.83
2018-07-14T04:23:32.309Z,5.47
2018-07-14T04:26:00.933Z,4.93
2018-07-14T04:28:29.220Z,5.57
2018-07-14T04:30:57.649Z,5.73
2018-07-14T04:33:26.021Z,5.83
2018-07-14T04:35:54.398Z,5.70
2018-07-14T04:38:22.840Z,5.40
2018-07-14T04:40:51.164Z,5.33
2018-07-14T04:43:19.637Z,6.13
2018-07-14T04:45:48.047Z,6.53
2018-07-14T04:48:16.702Z,5.73
2018-07-14T04:50:45.055Z,6.37
2018-07-14T04:53:13.514Z,6.47
2018-07-14T04:55:41.710Z,6.23
2018-07-14T04:58:09.989Z,6.10
2018-07-14T05:00:38.345Z,6.50
2018-07-14T05:03:06.827Z,6.30
2018-07-14T05:05:35.120Z,6.97
2018-07-14T05:08:03.377Z,6.27
2018-07-14T05:10:31.757Z,7.03
2018-07-14T05:13:00.129Z,6.47
2018-07-14T05:15:28.440Z,6.10
2018-07-14T05:17:56.791Z,5.83
2018-07-14T05:20:25.385Z,6.27
2018-07-14T05:22:53.632Z,6.67
2018-07-14T05:25:22.142Z,7.23
2018-07-14T05:27:50.439Z,6.50
2018-07-14T05:30:18.692Z,6.70
2018-07-14T05:32:47.003Z,6.63
2018-07-14T05:35:15.391Z,6.63
2018-07-14T05:37:43.702Z,6.53
2018-07-14T05:40:12.183Z,7.47
2018-07-14T05:42:40.611Z,6.43
2018-07-14T05:45:08.942Z,7.23
2018-07-14T05:47:37.389Z,6.90
2018-07-14T05:50:05.923Z,7.70
2018-07-14T05:52:34.200Z,6.60
2018-07-14T05:55:02.532Z,6.90
2018-07-14T05:57:31.035Z,7.20
2018-07-14T05:59:59.313Z,7.00
2018-07-14T06:02:27.718Z,7.40
2018-07-14T06:04:56.146Z,8.03
2018-07-14T06:07:25.196Z,7.30
2018-07-14T06:09:53.606Z,6.90
2018-07-14T06:12:22.067Z,6.10
2018-07-14T06:14:50.764Z,6.70
2018-07-14T06:17:19.150Z,7.37
2018-07-14T06:19:47.605Z,6.77
2018-07-14T06:22:15.884Z,6.90
2018-07-14T06:24:44.162Z,8.00
2018-07-14T06:27:12.555Z,6.90
2018-07-14T06:29:40.937Z,7.40
2018-07-14T06:32:09.679Z,7.10
2018-07-14T06:34:37.940Z,7.10
2018-07-14T06:37:06.385Z,7.40
2018-07-14T06:39:34.693Z,7.70
2018-07-14T06:42:03.178Z,7.40
2018-07-14T06:44:31.513Z,7.70
2018-07-14T06:46:59.884Z,6.53
2018-07-14T06:49:28.483Z,7.43
2018-07-14T06:51:56.856Z,7.40
2018-07-14T06:54:25.282Z,6.57
2018-07-14T06:56:53.757Z,7.17
2018-07-14T06:59:23.486Z,7.33
2018-07-14T07:01:52.166Z,7.20
2018-07-14T07:04:20.521Z,6.90
2018-07-14T07:06:48.804Z,7.27
2018-07-14T07:09:17.176Z,7.00
2018-07-14T07:11:45.772Z,6.90
2018-07-14T07:14:14.222Z,6.67
2018-07-14T07:16:42.721Z,6.30
2018-07-14T07:19:11.014Z,6.10
2018-07-14T07:21:39.540Z,6.10
2018-07-14T07:24:07.989Z,6.03
2018-07-14T07:26:36.349Z,5.57
2018-07-14T07:29:04.839Z,6.90
2018-07-14T07:31:33.223Z,6.17
2018-07-14T07:34:01.745Z,7.60
2018-07-14T07:36:30.115Z,6.90
2018-07-14T07:38:58.546Z,6.50
2018-07-14T07:41:26.931Z,7.00
2018-07-14T07:43:55.296Z,6.20
2018-07-14T07:46:23.651Z,6.70
2018-07-14T07:48:52.076Z,6.50
2018-07-14T07:51:20.414Z,6.80
2018-07-14T07:53:48.733Z,6.30
2018-07-14T07:56:17.111Z,6.07
2018-07-14T07:58:45.415Z,6.00
2018-07-14T08:01:13.877Z,6.23
2018-07-14T08:03:42.217Z,6.40
2018-07-14T08:06:10.716Z,6.90
2018-07-14T08:08:39.047Z,5.37
2018-07-14T08:11:07.325Z,6.40
2018-07-14T08:13:36.123Z,5.20
2018-07-14T08:16:04.798Z,6.07
2018-07-14T08:18:33.045Z,5.40
2018-07-14T08:21:01.546Z,5.20
2018-07-14T08:23:29.919Z,5.00
2018-07-14T08:25:58.366Z,5.07
2018-07-14T08:28:26.757Z,5.50
2018-07-14T08:30:55.110Z,5.23
2018-07-14T08:33:23.505Z,4.30
2018-07-14T08:35:51.788Z,4.50
2018-07-14T08:38:20.211Z,4.73
2018-07-14T08:40:48.715Z,4.20
2018-07-14T08:43:17.228Z,4.90
2018-07-14T08:45:45.565Z,4.03
2018-07-14T08:48:13.956Z,4.33
2018-07-14T08:50:42.307Z,3.53
2018-07-14T08:53:10.803Z,5.00
2018-07-14T08:55:39.888Z,4.27
2018-07-14T08:58:08.532Z,4.50
2018-07-14T09:00:37.039Z,4.23
2018-07-14T09:03:06.096Z,3.87
2018-07-14T09:05:34.732Z,3.70
2018-07-14T09:08:03.337Z,3.67
2018-07-14T09:10:31.671Z,3.37
2018-07-14T09:13:00.057Z,3.83
2018-07-14T09:15:28.392Z,3.27
2018-07-14T09:17:56.770Z,3.63
2018-07-14T09:20:25.089Z,3.77
2018-07-14T09:22:54.180Z,3.87
2018-07-14T09:25:22.656Z,3.20
2018-07-14T09:27:51.256Z,3.70
2018-07-14T09:30:20.073Z,3.30
2018-07-14T09:32:48.487Z,3.10
2018-07-14T09:35:17.231Z,3.30
2018-07-14T09:37:45.535Z,2.63
2018-07-14T09:40:14.378Z,3.67
2018-07-14T09:42:42.793Z,3.47
2018-07-14T09:45:11.144Z,3.23
2018-07-14T09:47:39.588Z,3.47
2018-07-14T09:50:07.912Z,3.03
2018-07-14T09:52:36.472Z,2.60
2018-07-14T09:55:04.884Z,2.93
2018-07-14T09:57:33.585Z,3.03
2018-07-14T10:00:02.016Z,2.93
2018-07-14T10:02:30.369Z,3.00
2018-07-14T10:04:58.757Z,2.77
2018-07-14T10:07:27.262Z,3.00
2018-07-14T10:09:55.681Z,2.60
2018-07-14T10:12:24.103Z,2.93
2018-07-14T10:14:52.521Z,2.57
2018-07-14T10:17:21.010Z,2.40
2018-07-14T10:19:49.406Z,3.20
2018-07-14T10:22:18.626Z,3.00
2018-07-14T10:24:47.343Z,3.50
2018-07-14T10:27:15.870Z,2.97
2018-07-14T10:29:44.240Z,3.43
2018-07-14T10:32:12.640Z,3.30
2018-07-14T10:34:41.075Z,4.00
2018-07-14T10:37:09.543Z,3.63
2018-07-14T10:39:37.859Z,3.40
2018-07-14T10:42:06.439Z,3.70
2018-07-14T10:44:34.810Z,3.60
2018-07-14T10:47:03.212Z,3.93
2018-07-14T10:49:31.696Z,3.70
2018-07-14T10:52:00.039Z,3.33
2018-07-14T10:54:28.622Z,4.13
2018-07-14T10:56:57.046Z,3.77
2018-07-14T10:59:25.602Z,4.27
2018-07-14T11:01:53.981Z,3.93
2018-07-14T11:04:22.356Z,3.33
2018-07-14T11:06:50.988Z,3.60
2018-07-14T11:09:19.419Z,3.50
2018-07-14T11:11:47.811Z,4.00
2018-07-14T11:14:16.185Z,3.60
2018-07-14T11:16:43.477Z,3.40
2018-07-14T11:19:10.875Z,3.40
2018-07-14T11:21:38.315Z,3.90
2018-07-14T11:24:05.857Z,3.40
2018-07-14T11:26:33.182Z,3.57
2018-07-14T11:29:00.594Z,3.20
2018-07-14T11:31:27.944Z,3.70
2018-07-14T11:33:55.436Z,2.93
2018-07-14T11:36:22.831Z,3.17
2018-07-14T11:38:50.259Z,3.40
2018-07-14T11:41:17.750Z,3.77
2018-07-14T11:43:45.358Z,3.30
2018-07-14T11:46:12.751Z,3.20
2018-07-14T11:48:40.201Z,3.30
2018-07-14T11:51:07.835Z,3.10
2018-07-14T11:53:35.194Z,3.50
2018-07-14T11:56:02.955Z,3.30
2018-07-14T11:58:30.567Z,3.27
2018-07-14T12:00:58.080Z,3.33
2018-07-14T12:03:25.494Z,3.27
2018-07-14T12:05:52.887Z,3.10
2018-07-14T12:08:20.373Z,3.30
2018-07-14T12:10:47.839Z,3.20
2018-07-14T12:13:15.324Z,2.90
2018-07-14T12:15:42.656Z,3.10
2018-07-14T12:18:10.200Z,3.00
2018-07-14T12:20:37.651Z,3.17
2018-07-14T12:23:05.123Z,3.50
2018-07-14T12:25:32.546Z,3.03
2018-07-14T12:28:00.308Z,3.50
2018-07-14T12:30:27.687Z,3.20
2018-07-14T12:32:55.242Z,3.27
2018-07-14T12:35:22.820Z,3.33
2018-07-14T12:37:50.148Z,3.73
2018-07-14T12:40:17.641Z,3.30
2018-07-14T12:42:45.014Z,3.20
2018-07-14T12:45:12.412Z,3.20
2018-07-14T12:47:39.771Z,2.90
2018-07-14T12:50:07.162Z,8.97
2018-07-14T12:52:34.629Z,4.97
2018-07-14T12:55:01.979Z,3.43
2018-07-14T12:57:29.606Z,3.30
2018-07-14T12:59:57.201Z,4.00
2018-07-14T13:02:24.552Z,3.23
2018-07-14T13:04:52.225Z,2.73
2018-07-14T13:07:19.715Z,3.50
2018-07-14T13:09:47.054Z,2.83
2018-07-14T13:12:14.739Z,3.60
2018-07-14T13:14:42.057Z,3.67
2018-07-14T13:17:09.436Z,3.40
2018-07-14T13:19:36.825Z,3.60
2018-07-14T13:22:04.162Z,3.60
2018-07-14T13:24:31.651Z,3.00
2018-07-14T13:26:59.203Z,4.20
2018-07-14T13:29:26.794Z,3.30
2018-07-14T13:31:54.145Z,3.07
2018-07-14T13:34:21.454Z,3.77
2018-07-14T13:36:48.801Z,3.40
2018-07-14T13:39:16.187Z,3.10
2018-07-14T13:41:43.523Z,3.20
2018-07-14T13:44:10.810Z,3.10
2018-07-14T13:46:38.178Z,3.07
2018-07-14T13:49:05.535Z,3.10
2018-07-14T13:51:33.368Z,3.00
2018-07-14T13:54:00.727Z,3.10
2018-07-14T13:56:28.085Z,3.10
2018-07-14T13:58:55.462Z,3.53
2018-07-14T14:01:22.817Z,2.83
2018-07-14T14:03:50.150Z,3.20
2018-07-14T14:06:17.497Z,3.30
2018-07-14T14:08:44.789Z,2.83
2018-07-14T14:11:12.192Z,3.43
2018-07-14T14:13:39.605Z,2.67
2018-07-14T14:16:07.395Z,3.20
2018-07-14T14:18:35.030Z,3.73
2018-07-14T14:21:02.326Z,3.30
2018-07-14T14:23:30.208Z,3.47
2018-07-14T14:25:57.683Z,3.23
2018-07-14T14:28:24.986Z,2.90
2018-07-14T14:30:52.363Z,2.87
2018-07-14T14:33:19.779Z,3.63
2018-07-14T14:35:47.119Z,3.27
2018-07-14T14:38:14.449Z,3.07
2018-07-14T14:40:42.025Z,3.17
2018-07-14T14:43:09.438Z,3.10
2018-07-14T14:45:36.765Z,3.20
2018-07-14T14:48:04.118Z,3.00
2018-07-14T14:50:31.449Z,3.53
2018-07-14T14:52:58.814Z,3.20
2018-07-14T14:55:26.146Z,2.83
2018-07-14T14:57:53.737Z,2.83
2018-07-14T15:00:21.132Z,2.80
2018-07-14T15:02:48.513Z,3.17
2018-07-14T15:05:15.913Z,3.20
2018-07-14T15:07:43.223Z,2.90
2018-07-14T15:10:11.371Z,2.80
2018-07-14T15:12:38.758Z,2.87
2018-07-14T15:15:06.098Z,2.60
2018-07-14T15:17:33.399Z,2.80
2018-07-14T15:20:00.771Z,3.20
2018-07-14T15:22:28.104Z,2.77
2018-07-14T15:24:55.579Z,2.63
2018-07-14T15:27:22.974Z,2.90
2018-07-14T15:29:50.273Z,2.87
2018-07-14T15:32:17.885Z,2.83
2018-07-14T15:34:45.305Z,3.53
2018-07-14T15:37:12.885Z,3.00
2018-07-14T15:39:41.267Z,3.00
2018-07-14T15:42:08.699Z,2.93
2018-07-14T15:44:36.346Z,3.03
2018-07-14T15:47:04.113Z,3.13
2018-07-14T15:49:31.472Z,2.87
2018-07-14T15:51:59.386Z,2.90
2018-07-14T15:54:26.793Z,2.70
2018-07-14T15:56:54.267Z,2.50
2018-07-14T15:59:21.661Z,3.20
2018-07-14T16:01:48.931Z,3.00
2018-07-14T16:04:16.628Z,2.67
2018-07-14T16:06:44.206Z,2.97
2018-07-14T16:09:11.587Z,2.93
2018-07-14T16:11:38.980Z,2.90
2018-07-14T16:14:06.491Z,2.50
2018-07-14T16:16:33.925Z,3.03
2018-07-14T16:19:01.598Z,3.60
2018-07-14T16:21:28.890Z,3.17
2018-07-14T16:23:56.412Z,3.40
2018-07-14T16:26:23.791Z,3.03
2018-07-14T16:28:51.224Z,3.10
2018-07-14T16:31:18.882Z,3.80
2018-07-14T16:33:46.240Z,2.87
2018-07-14T16:36:13.953Z,3.03
2018-07-14T16:38:41.474Z,3.23
2018-07-14T16:41:08.792Z,2.93
2018-07-14T16:43:36.202Z,3.03
2018-07-14T16:46:03.484Z,2.97
2018-07-14T16:48:30.897Z,3.00
2018-07-14T16:50:58.246Z,3.27
2018-07-14T16:53:25.607Z,3.10
2018-07-14T16:55:53.177Z,3.10
2018-07-14T16:58:21.209Z,2.90
2018-07-14T17:00:48.579Z,2.83
2018-07-14T17:03:16.011Z,2.80
2018-07-14T17:05:43.394Z,2.60
2018-07-14T17:08:10.813Z,2.83
2018-07-14T17:10:38.539Z,3.20
2018-07-14T17:13:06.075Z,3.03
2018-07-14T17:15:33.542Z,2.93
2018-07-14T17:18:01.034Z,3.30
2018-07-14T17:20:28.501Z,3.27
2018-07-14T17:22:55.880Z,2.70
2018-07-14T17:25:23.482Z,3.43
2018-07-14T17:27:50.805Z,3.20
2018-07-14T17:30:18.314Z,3.50
2018-07-14T17:32:45.839Z,3.33
2018-07-14T17:35:13.254Z,3.27
2018-07-14T17:37:40.586Z,3.70
2018-07-14T17:40:07.957Z,3.37
2018-07-14T17:42:35.299Z,3.00
2018-07-14T17:45:02.786Z,3.40
2018-07-14T17:47:30.187Z,3.43
2018-07-14T17:49:57.648Z,3.50
2018-07-14T17:52:25.124Z,3.60
2018-07-14T17:54:52.565Z,3.13
2018-07-14T17:57:19.950Z,3.70
2018-07-14T17:59:47.639Z,3.43
2018-07-14T18:02:15.018Z,3.43
2018-07-14T18:04:42.429Z,3.70
2018-07-14T18:07:09.761Z,3.13
2018-07-14T18:09:37.198Z,3.20
2018-07-14T18:12:04.825Z,3.27
2018-07-14T18:14:32.152Z,3.40
2018-07-14T18:16:59.938Z,3.77
2018-07-14T18:19:27.392Z,3.57
2018-07-14T18:21:55.243Z,3.60
2018-07-14T18:24:22.576Z,3.77
2018-07-14T18:26:50.032Z,4.00
2018-07-14T18:29:17.959Z,4.20
2018-07-14T18:31:45.586Z,4.70
2018-07-14T18:34:13.038Z,7.70
2018-07-14T18:36:40.594Z,7.47
2018-07-14T18:39:08.379Z,6.90
2018-07-14T18:41:35.748Z,8.10
2018-07-14T18:44:03.282Z,7.00
2018-07-14T18:46:30.891Z,5.60
2018-07-14T18:48:58.375Z,5.03
2018-07-14T18:51:26.271Z,4.10
2018-07-14T18:53:53.784Z,4.00
2018-07-14T18:56:21.167Z,3.97
2018-07-14T18:58:48.886Z,5.03
2018-07-14T19:01:16.402Z,4.50
2018-07-14T19:03:43.925Z,5.50
2018-07-14T19:06:11.341Z,6.37
2018-07-14T19:08:38.775Z,9.80
2018-07-14T19:11:06.235Z,6.73
2018-07-14T19:13:33.730Z,8.83
2018-07-14T19:16:01.811Z,8.03
2018-07-14T19:18:29.196Z,9.30
2018-07-14T19:20:56.618Z,7.10
2018-07-14T19:23:24.153Z,9.00
2018-07-14T19:25:51.688Z,10.77
2018-07-14T19:28:19.049Z,5.83
2018-07-14T19:30:46.434Z,5.50
2018-07-14T19:33:13.798Z,5.80
2018-07-14T19:35:41.730Z,5.13
2018-07-14T19:38:09.087Z,4.27
2018-07-14T19:40:36.980Z,4.60
2018-07-14T19:43:04.325Z,3.90
2018-07-14T19:45:31.838Z,4.70
2018-07-14T19:47:59.357Z,5.03
2018-07-14T19:50:26.837Z,4.20
2018-07-14T19:52:54.576Z,4.33
2018-07-14T19:55:21.976Z,3.90
2018-07-14T19:57:49.508Z,4.33
2018-07-14T20:00:16.846Z,4.60
2018-07-14T20:02:44.423Z,4.60
2018-07-14T20:05:12.543Z,4.20
2018-07-14T20:07:39.893Z,4.90
2018-07-14T20:10:07.284Z,4.63
2018-07-14T20:12:34.854Z,4.20
2018-07-14T20:15:02.586Z,5.03
2018-07-14T20:17:29.942Z,5.10
2018-07-14T20:19:57.309Z,5.40
2018-07-14T20:22:24.840Z,4.67
2018-07-14T20:24:54.582Z,4.70
2018-07-14T20:27:21.912Z,4.47
2018-07-14T20:29:49.326Z,5.30
2018-07-14T20:32:16.682Z,4.53
2018-07-14T20:37:27.166Z,6.10
2018-07-14T20:39:55.859Z,5.70
2018-07-14T20:42:24.248Z,5.87
2018-07-14T20:44:52.882Z,5.37
2018-07-14T20:47:21.648Z,5.87
2018-07-14T20:49:50.039Z,5.30
2018-07-14T20:52:18.782Z,5.27
2018-07-14T20:54:47.407Z,5.70
2018-07-14T20:57:16.054Z,6.10
2018-07-14T20:59:45.180Z,5.47
2018-07-14T21:02:13.654Z,5.40
2018-07-14T21:04:42.440Z,6.00
2018-07-14T21:07:10.786Z,5.37
2018-07-14T21:09:39.512Z,5.50
2018-07-14T21:12:08.051Z,5.90
2018-07-14T21:14:36.365Z,5.30
2018-07-14T21:17:04.951Z,6.00
2018-07-14T21:19:33.455Z,6.20
2018-07-14T21:22:01.972Z,5.87
2018-07-14T21:24:30.715Z,5.97
2018-07-14T21:26:59.352Z,5.80
2018-07-14T21:29:27.806Z,6.30
2018-07-14T21:31:56.509Z,6.10
2018-07-14T21:34:25.103Z,6.30
2018-07-14T21:36:54.127Z,5.50
2018-07-14T21:39:22.753Z,5.93
2018-07-14T21:41:51.368Z,6.20
2018-07-14T21:44:20.153Z,6.47
2018-07-14T21:46:48.851Z,6.57
2018-07-14T21:49:17.698Z,6.60
2018-07-14T21:51:46.231Z,6.70
2018-07-14T21:54:14.917Z,6.23
2018-07-14T21:56:43.568Z,6.50
2018-07-14T21:59:11.916Z,6.07
2018-07-14T22:01:45.801Z,6.10
2018-07-14T22:04:14.118Z,6.60
2018-07-14T22:06:42.658Z,6.93
2018-07-14T22:09:11.153Z,6.43
2018-07-14T22:11:39.488Z,6.67
2018-07-14T22:14:08.163Z,6.87
2018-07-14T22:16:36.519Z,6.30
2018-07-14T22:19:04.921Z,7.00
2018-07-14T22:21:33.476Z,7.43
2018-07-14T22:24:01.830Z,6.20
2018-07-14T22:26:30.163Z,6.27
2018-07-14T22:28:58.795Z,7.30
2018-07-14T22:31:27.544Z,6.50
2018-07-14T22:33:55.968Z,7.00
2018-07-14T22:36:24.284Z,6.87
2018-07-14T22:38:53.304Z,7.50
2018-07-14T22:41:21.811Z,6.40
2018-07-14T22:43:50.399Z,6.57
2018-07-14T22:46:18.850Z,6.60
2018-07-14T22:48:47.267Z,7.17
2018-07-14T22:51:15.563Z,6.47
2018-07-14T22:53:43.861Z,6.10
2018-07-14T22:56:12.225Z,6.80
2018-07-14T22:58:40.636Z,7.20
2018-07-14T23:01:08.973Z,6.43
2018-07-14T23:03:37.378Z,6.90
2018-07-14T23:06:05.888Z,6.67
2018-07-14T23:08:34.329Z,6.93
2018-07-14T23:11:02.707Z,7.00
2018-07-14T23:13:31.085Z,7.70
2018-07-14T23:15:59.494Z,6.60
2018-07-14T23:18:27.912Z,6.90
2018-07-14T23:20:56.949Z,7.83
2018-07-14T23:23:25.226Z,7.03
2018-07-14T23:25:53.779Z,7.23
2018-07-14T23:28:22.182Z,7.43
2018-07-14T23:30:50.608Z,7.73
2018-07-14T23:33:19.021Z,7.30
2018-07-14T23:35:47.509Z,7.30
2018-07-14T23:38:15.868Z,7.33
2018-07-14T23:40:44.333Z,7.43
2018-07-14T23:43:12.775Z,6.67
2018-07-14T23:45:41.153Z,8.03
2018-07-14T23:48:09.442Z,7.20
2018-07-14T23:50:37.771Z,6.87
2018-07-14T23:53:06.388Z,7.63
2018-07-14T23:55:34.780Z,7.90
2018-07-14T23:58:03.088Z,7.77
